Slide Mountain Weather observations

Data are for 10 minute period ending at time listed.
 Day   Time   Solar   Ave.   Ave.  Ave.  Vector  Max.    Baro.  
  of    of     Rad.   Air    Rel.  Wind   Wind   Wind   Press.  
Year   Day            Temp.  Hum.  Speed  Dir.   Gust           
2017   (PST)  Kw/m2    F      %     mph   deg.    mph     mb.   
-----------------------------------------------------------------
 148   10:20   0.81   49.4    33   13.0    60     22.9    727.6 
 148   10:30   0.82   49.4    32   11.6    66     20.8    727.5 
 148   10:40   0.83   50.0    31    9.4    69     16.8    727.4 
 148   10:50   0.85   50.5    31   10.5    70     19.0    727.3 
 148   11:00   0.86   50.4    29    9.7    69     22.6    727.3 
 148   11:10   0.86   51.0    29   11.4    66     22.8    727.2 
 148   11:20   0.87   50.7    28    9.4    68     21.0    727.2 
 148   11:30   0.87   50.7    28   11.7    67     22.6    727.2 
 148   11:40   0.88   51.2    26   11.9    72     19.6    727.2 
 148   11:50   0.88   50.7    25   14.0    66     25.1    727.2 
 148   12:00   0.88   51.0    27   11.0    71     25.4    727.3 
 148   12:10   0.88   53.1    25    5.5   106     10.2    727.3 
 148   12:20   0.88   53.2    24    5.6    85     11.9    727.2 
 148   12:30   0.88   54.4    23    0.9   110      3.4    727.0 
 148   12:40   0.87   53.9    24    4.8    75     11.9    726.8 
 148   12:50   0.86   53.8    25    4.6    85      8.7    726.8 
 148   13:00   0.86   53.5    24    3.3   321     13.7    726.7 
 148   13:10   0.85   55.2    25    2.7   205      7.3    726.6 
 148   13:20   0.84   55.7    25    5.0   176     10.3    726.6 
 148   13:30   0.83   54.9    26    8.4   157     12.6    726.6 
 148   13:40   0.82   55.5    25    6.3   141     11.6    726.5 
 148   13:50   0.81   56.4    24    7.9   152     14.2    726.5 
 148   14:00   0.79   56.7    22    7.5   143     13.3    726.4 
 148   14:10   0.78   56.9    21    8.4   143     15.9    726.3 
 148   14:20   0.76   56.5    22   10.7   139     19.2    726.2 
 148   14:30   0.74   55.9    23   13.2   141     20.1    726.2 
 148   14:40   0.72   56.3    23    9.9   142     15.7    726.2 
 148   14:50   0.70   56.6    23   10.5   138     15.7    726.1 
 148   15:00   0.68   56.8    23    9.8   135     16.8    726.0 
 148   15:10   0.66   56.4    24   11.7   144     18.6    725.9 
 148   15:20   0.63   56.0    23   11.6   141     17.2    725.9 
 148   15:30   0.61   56.6    22    8.9   136     13.3    725.8 
 148   15:40   0.58   56.9    22    6.6   148     12.1    725.7 
 148   15:50   0.56   57.5    21    6.8   128      9.8    725.6 
 148   16:00   0.53   57.5    22    4.0   144      6.7    725.5 
 148   16:10   0.51   57.9    21    3.5   166      7.9    725.4 
 148   16:20   0.48   58.3    21    2.6   136      7.3    725.3 
 148   16:30   0.45   57.9    22    4.2   143      6.2    725.2 
 148   16:40   0.42   57.6    23    6.0   140     10.1    725.1 
 148   16:50   0.40   57.1    23    2.3   128      7.9    725.1 
 148   17:00   0.37   57.5    24    2.6   126      7.5    725.2 
 148   17:10   0.34   58.2    24    1.4   128      5.2    725.3 
 148   17:20   0.31   56.5    24    5.8   131     10.0    725.4 
 148   17:30   0.28   56.3    24    5.2   134      7.9    725.6 
 148   17:40   0.26   55.9    24    3.2   136      6.9    725.8 
 148   17:50   0.23   55.6    25    5.3   144      7.7    726.0 
 148   18:00   0.18   55.2    25    5.0   146      7.8    726.2 
 148   18:10   0.08   53.2    27    7.5   172      8.9    726.4 
 148   18:20   0.10   52.4    29    9.7   196     11.7    726.7 
 148   18:30   0.12   51.5    46   12.4   238     17.9    727.0 
 148   18:40   0.07   49.8    53   11.9   251     15.5    727.2 
 148   18:50   0.05   49.4    53   11.4   246     16.8    727.6 
 148   19:00   0.03   49.4    52   10.6   231     15.5    727.9 
 148   19:10   0.01   49.0    52    9.9   232     14.8    728.2 
 148   19:20   0.01   49.1    50    8.1   254     10.1    728.4 
 148   19:30   0.00   49.5    45    8.2   248      9.9    728.6 
 148   19:40   0.00   49.4    45    6.9   232      9.6    728.8 
 148   19:50   0.00   50.3    38    4.7   230      6.5    728.9 
 148   20:00   0.00   50.9    32    1.7   284      9.2    729.0 
 148   20:10   0.00   51.6    26   14.6   345     19.3    729.0 
 148   20:20   0.00   51.5    28   18.5     8     23.9    728.9 
 148   20:30   0.00   51.2    29   14.9     6     19.9    728.9 
 148   20:40   0.00   51.2    30   13.2     9     18.0    728.9 
 148   20:50   0.00   51.1    29   11.4   338     14.9    728.9 
 148   21:00   0.00   50.5    32   10.1   324     12.4    728.9 
 148   21:10   0.00   50.4    34   11.5   322     13.5    728.9 
 148   21:20   0.00   50.3    35   11.7   319     13.6    728.9 
 148   21:30   0.00   50.6    33   11.3   324     13.6    729.0 
 148   21:40   0.00   50.7    34   10.2   326     13.0    729.0 
 148   21:50   0.00   50.6    34   10.3   330     12.3    729.0 
 148   22:00   0.00   50.5    34    9.4   328     11.1    729.0 
 148   22:10   0.00   50.5    35    8.8   324     11.7    729.0 
 148   22:20   0.00   50.5    35    6.3   326     10.2    729.0 
 148   22:30   0.00   50.4    37    8.2   326     12.2    729.0 
 148   22:40   0.00   50.3    38    8.5   334     10.4    729.1 
 148   22:50   0.00   50.1    38    8.3   337     10.8    729.1 
 148   23:00   0.00   50.1    38    8.2   337      9.4    729.1 
 148   23:10   0.00   50.2    38    8.0   337      9.6    729.1 
 148   23:20   0.00   50.0    38    8.8   337     10.8    729.2 
 148   23:30   0.00   49.9    37    7.1   336      8.8    729.2 
 148   23:40   0.00   49.9    37    5.9   335      8.2    729.3 
 148   23:50   0.00   50.0    33    8.1   346     14.4    729.3 
 149    0:00   0.00   50.3    28   12.8     4     16.3    729.3 
 149    0:10   0.00   50.3    29   12.8     1     15.8    729.3 
 149    0:20   0.00   50.2    29   13.5   351     18.4    729.3 
 149    0:30   0.00   50.2    29   12.1   347     15.9    729.2 
 149    0:40   0.00   49.8    30   13.1   356     16.1    729.2 
 149    0:50   0.00   49.7    31   16.3   353     19.7    729.2 
 149    1:00   0.00   48.6    39   15.5   340     18.4    729.2 
 149    1:10   0.00   48.1    40   15.2   334     17.8    729.2 
 149    1:20   0.00   47.6    41   14.2   325     16.6    729.3 
 149    1:30   0.00   47.5    40   14.0   322     16.7    729.3 
 149    1:40   0.00   48.0    37   14.9   323     18.4    729.4 
 149    1:50   0.00   47.8    36   15.1   324     17.6    729.4 
 149    2:00   0.00   47.6    37   15.9   325     18.7    729.5 
 149    2:10   0.00   47.4    38   16.2   327     18.6    729.5 
 149    2:20   0.00   47.3    39   15.8   327     18.2    729.5 
 149    2:30   0.00   47.2    42   14.9   323     16.6    729.5 
 149    2:40   0.00   47.1    43   15.7   325     18.3    729.5 
 149    2:50   0.00   47.2    43   16.2   330     18.2    729.6 
 149    3:00   0.00   47.3    40   16.9   331     19.6    729.6 
 149    3:10   0.00   47.5    36   17.5   335     20.0    729.6 
 149    3:20   0.00   47.4    36   18.0   338     21.5    729.6 
 149    3:30   0.00   47.5    34   18.3   340     21.4    729.5 
 149    3:40   0.00   47.4    35   18.4   343     21.0    729.5 
 149    3:50   0.00   47.6    32   19.8   352     25.3    729.5 
 149    4:00   0.00   47.8    31   18.4     5     25.5    729.5 
 149    4:10   0.00   47.6    31   20.0     5     24.8    729.6 
 149    4:20   0.00   47.7    30   23.2    11     26.8    729.7 
 149    4:30   0.00   47.8    30   23.4    15     26.3    729.7 
 149    4:40   0.01   47.8    30   24.0    18     27.0    729.9 
 149    4:50   0.01   47.9    30   23.5    16     26.5    730.0 
 149    5:00   0.03   48.1    30   21.7    10     25.3    729.9 
 149    5:10   0.05   48.3    29   20.7     4     24.5    729.7 
 149    5:20   0.07   48.2    30   20.4     5     25.2    729.5 
 149    5:30   0.10   48.4    29   19.9     3     23.5    729.3 
 149    5:40   0.13   48.4    30   19.7     4     23.0    729.1 
 149    5:50   0.15   48.5    30   18.8     5     22.8    729.0 
 149    6:00   0.18   48.7    29   19.0     4     23.5    728.9 
 149    6:10   0.21   48.9    29   19.4     6     25.2    728.8 
 149    6:20   0.23   48.9    29   17.6     5     23.2    728.7 
 149    6:30   0.26   49.0    30   16.8     7     22.8    728.6 
 149    6:40   0.27   49.1    30   17.9    11     23.4    728.5 
 149    6:50   0.28   49.0    32   17.3    20     21.9    728.5 
 149    7:00   0.34   49.2    32   16.5    17     20.0    728.3 
 149    7:10   0.38   49.4    33   14.8    28     19.0    728.1 
 149    7:20   0.41   49.3    34   13.9    31     17.7    727.8 
 149    7:30   0.43   49.4    36   14.3    46     20.7    727.4 
 149    7:40   0.46   49.7    39   14.1    54     21.4    727.1 
 149    7:50   0.49   50.0    36   13.8    54     20.6    726.9 
 149    8:00   0.52   50.2    34   13.4    53     22.2    726.8 
 149    8:10   0.54   50.1    34   14.1    58     19.9    727.0 
 149    8:20   0.55   50.5    33   12.0    62     16.4    727.4 
 149    8:30   0.60   51.1    31   10.1    63     18.3    727.4 
 149    8:40   0.60   50.6    29   14.0    56     21.6    727.5 
 149    8:50   0.65   51.2    29    9.3    67     18.5    727.5 
 149    9:00   0.66   51.1    28   13.3    60     21.6    727.4 
 149    9:10   0.66   50.9    30   13.3    63     23.4    727.4 
 149    9:20   0.63   50.7    30   15.0    60     26.8    726.9 
 149    9:30   0.66   50.7    31   15.1    59     25.8    726.8 
 149    9:40   0.71   50.7    30   18.2    56     29.3    726.9 
 149    9:50   0.76   50.7    31   22.3    48     29.5    726.9 
 149   10:00   0.77   51.4    31   14.1    61     26.2    727.0 
 149   10:10   0.80   51.5    30   18.7    56     33.8    728.2 

Return to Slide Mountain graphs page.


Western Regional Climate Center,wrcc@dri.edu